createdAt,value
2018-09-08T00:00:52.803Z,5.97
2018-09-08T00:03:21.184Z,5.57
2018-09-08T00:05:49.516Z,4.93
2018-09-08T00:08:17.804Z,3.50
2018-09-08T00:10:46.057Z,3.17
2018-09-08T00:13:14.495Z,3.17
2018-09-08T00:15:48.313Z,5.67
2018-09-08T00:18:22.075Z,4.30
2018-09-08T00:20:55.652Z,1.73
2018-09-08T00:23:29.461Z,3.70
2018-09-08T00:26:03.137Z,2.90
2018-09-08T00:28:37.556Z,5.40
2018-09-08T00:31:06.294Z,3.80
2018-09-08T00:33:35.765Z,3.17
2018-09-08T00:36:04.072Z,4.53
2018-09-08T00:38:33.233Z,2.93
2018-09-08T00:41:01.446Z,4.30
2018-09-08T00:43:29.815Z,3.43
2018-09-08T00:45:58.239Z,2.53
2018-09-08T00:48:26.452Z,1.93
2018-09-08T00:50:54.715Z,7.23
2018-09-08T00:53:23.098Z,5.70
2018-09-08T00:55:51.403Z,2.03
2018-09-08T00:58:19.695Z,2.97
2018-09-08T01:00:48.034Z,2.93
2018-09-08T01:03:16.572Z,9.97
2018-09-08T01:05:44.896Z,3.93
2018-09-08T01:08:13.201Z,4.47
2018-09-08T01:10:41.516Z,3.30
2018-09-08T01:13:10.205Z,4.17
2018-09-08T01:15:39.172Z,3.52
2018-09-08T01:18:07.635Z,1.93
2018-09-08T01:20:35.894Z,4.43
2018-09-08T01:23:04.291Z,9.90
2018-09-08T01:25:32.538Z,4.13
2018-09-08T01:28:00.786Z,3.00
2018-09-08T01:30:29.123Z,2.80
2018-09-08T01:32:57.635Z,5.33
2018-09-08T01:35:25.884Z,2.37
2018-09-08T01:37:54.112Z,2.63
2018-09-08T01:40:22.428Z,2.80
2018-09-08T01:42:50.873Z,3.17
2018-09-08T01:45:19.123Z,2.87
2018-09-08T01:47:47.350Z,2.73
2018-09-08T01:50:15.692Z,6.17
2018-09-08T01:52:44.015Z,3.63
2018-09-08T01:55:12.325Z,2.93
2018-09-08T01:57:40.590Z,1.87
2018-09-08T02:00:09.713Z,3.47
2018-09-08T02:02:38.521Z,4.43
2018-09-08T02:05:08.072Z,6.50
2018-09-08T02:07:36.634Z,3.23
2018-09-08T02:10:05.071Z,3.40
2018-09-08T02:12:33.370Z,1.73
2018-09-08T02:15:01.661Z,2.60
2018-09-08T02:17:29.925Z,3.33
2018-09-08T02:19:58.152Z,4.97
2018-09-08T02:22:26.422Z,2.90
2018-09-08T02:24:54.696Z,3.93
2018-09-08T02:27:23.140Z,3.67
2018-09-08T02:29:51.465Z,4.07
2018-09-08T02:32:19.740Z,4.87
2018-09-08T02:34:48.757Z,5.10
2018-09-08T02:37:16.983Z,5.13
2018-09-08T02:39:45.289Z,4.63
2018-09-08T02:42:13.592Z,2.73
2018-09-08T02:44:42.144Z,3.77
2018-09-08T02:47:10.370Z,3.70
2018-09-08T02:49:50.052Z,3.37
2018-09-08T02:52:17.324Z,2.17
2018-09-08T02:54:44.634Z,4.43
2018-09-08T02:57:12.077Z,3.17
2018-09-08T02:59:39.327Z,3.40
2018-09-08T03:02:06.703Z,2.50
2018-09-08T03:04:33.978Z,4.20
2018-09-08T03:07:04.681Z,2.87
2018-09-08T03:09:31.988Z,3.73
2018-09-08T03:11:59.245Z,3.33
2018-09-08T03:14:26.629Z,4.70
2018-09-08T03:16:53.842Z,8.43
2018-09-08T03:19:21.116Z,2.80
2018-09-08T03:21:48.343Z,6.63
2018-09-08T03:24:16.643Z,3.53
2018-09-08T03:26:43.909Z,3.43
2018-09-08T03:29:11.172Z,2.63
2018-09-08T03:31:38.518Z,7.43
2018-09-08T03:34:05.878Z,4.10
2018-09-08T03:36:33.175Z,4.20
2018-09-08T03:39:00.437Z,2.10
2018-09-08T03:41:27.717Z,2.63
2018-09-08T03:43:55.072Z,3.70
2018-09-08T03:46:22.400Z,5.03
2018-09-08T03:48:49.843Z,4.27
2018-09-08T03:51:17.161Z,3.00
2018-09-08T03:53:44.553Z,2.23
2018-09-08T03:56:11.816Z,3.70
2018-09-08T03:58:39.149Z,1.90
2018-09-08T04:01:06.436Z,4.13
2018-09-08T04:03:34.831Z,2.07
2018-09-08T04:06:03.098Z,2.80
2018-09-08T04:08:31.395Z,3.77
2018-09-08T04:11:01.137Z,5.50
2018-09-08T04:13:30.586Z,1.83
2018-09-08T04:15:58.805Z,2.97
2018-09-08T04:18:27.098Z,3.63
2018-09-08T04:20:55.390Z,5.27
2018-09-08T04:23:23.630Z,5.07
2018-09-08T04:25:51.911Z,4.40
2018-09-08T04:28:20.556Z,2.43
2018-09-08T04:30:48.854Z,4.43
2018-09-08T04:33:17.221Z,3.37
2018-09-08T04:35:45.510Z,5.50
2018-09-08T04:38:13.833Z,2.27
2018-09-08T04:40:42.152Z,3.60
2018-09-08T04:43:11.522Z,5.37
2018-09-08T04:45:39.779Z,7.00
2018-09-08T04:48:08.074Z,4.77
2018-09-08T04:50:36.619Z,3.57
2018-09-08T04:53:05.190Z,5.47
2018-09-08T04:55:33.466Z,3.90
2018-09-08T04:58:01.814Z,2.33
2018-09-08T05:00:30.172Z,2.17
2018-09-08T05:02:58.521Z,4.87
2018-09-08T05:05:26.842Z,5.30
2018-09-08T05:07:55.172Z,5.10
2018-09-08T05:10:23.527Z,5.00
2018-09-08T05:12:51.893Z,4.00
2018-09-08T05:15:20.173Z,3.47
2018-09-08T05:17:48.459Z,6.20
2018-09-08T05:20:16.785Z,3.30
2018-09-08T05:22:45.164Z,5.07
2018-09-08T05:25:13.475Z,5.73
2018-09-08T05:27:41.717Z,4.97
2018-09-08T05:30:10.123Z,6.13
2018-09-08T05:32:38.518Z,3.67
2018-09-08T05:35:07.449Z,2.67
2018-09-08T05:37:35.660Z,5.60
2018-09-08T05:40:03.922Z,5.73
2018-09-08T05:42:33.593Z,3.67
2018-09-08T05:45:01.905Z,4.03
2018-09-08T05:47:30.183Z,4.67
2018-09-08T05:49:58.504Z,5.57
2018-09-08T05:52:26.853Z,3.73
2018-09-08T05:54:55.194Z,4.33
2018-09-08T05:57:23.447Z,4.17
2018-09-08T05:59:51.726Z,5.33
2018-09-08T06:02:19.948Z,7.03
2018-09-08T06:04:48.331Z,3.50
2018-09-08T06:07:16.648Z,5.17
2018-09-08T06:09:44.924Z,4.90
2018-09-08T06:12:13.185Z,6.03
2018-09-08T06:14:42.620Z,6.37
2018-09-08T06:17:10.911Z,4.50
2018-09-08T06:19:39.202Z,5.63
2018-09-08T06:22:07.519Z,3.87
2018-09-08T06:24:36.018Z,6.87
2018-09-08T06:27:04.260Z,5.23
2018-09-08T06:29:32.591Z,6.63
2018-09-08T06:32:01.669Z,5.80
2018-09-08T06:34:30.038Z,6.93
2018-09-08T06:36:58.392Z,6.67
2018-09-08T06:39:26.696Z,5.93
2018-09-08T06:41:55.022Z,6.93
2018-09-08T06:44:23.516Z,7.43
2018-09-08T06:46:51.878Z,6.60
2018-09-08T06:49:20.199Z,4.57
2018-09-08T06:51:48.664Z,6.23
2018-09-08T06:54:17.067Z,6.30
2018-09-08T06:56:45.420Z,6.60
2018-09-08T06:59:13.812Z,4.93
2018-09-08T07:01:42.197Z,5.53
2018-09-08T07:04:10.660Z,7.07
2018-09-08T07:06:38.969Z,6.97
2018-09-08T07:09:08.987Z,5.73
2018-09-08T07:11:37.297Z,6.57
2018-09-08T07:14:06.651Z,4.70
2018-09-08T07:16:35.015Z,7.13
2018-09-08T07:19:03.575Z,7.77
2018-09-08T07:21:31.809Z,6.20
2018-09-08T07:24:00.295Z,7.70
2018-09-08T07:26:28.641Z,6.50
2018-09-08T07:28:57.076Z,6.63
2018-09-08T07:31:25.515Z,8.20
2018-09-08T07:33:54.173Z,7.73
2018-09-08T07:36:22.657Z,5.33
2018-09-08T07:38:51.068Z,7.37
2018-09-08T07:41:19.477Z,7.10
2018-09-08T07:43:49.577Z,10.70
2018-09-08T07:46:17.940Z,7.37
2018-09-08T07:48:46.239Z,5.53
2018-09-08T07:51:14.532Z,6.80
2018-09-08T07:53:42.983Z,9.43
2018-09-08T07:56:11.187Z,8.00
2018-09-08T07:58:39.506Z,5.67
2018-09-08T08:01:07.791Z,6.90
2018-09-08T08:03:36.282Z,6.87
2018-09-08T08:06:04.634Z,8.07
2018-09-08T08:08:33.000Z,7.03
2018-09-08T08:11:01.367Z,9.40
2018-09-08T08:13:30.008Z,10.40
2018-09-08T08:15:58.465Z,5.40
2018-09-08T08:18:26.810Z,10.33
2018-09-08T08:20:55.208Z,6.47
2018-09-08T08:23:23.717Z,6.73
2018-09-08T08:25:52.003Z,7.00
2018-09-08T08:28:20.297Z,6.13
2018-09-08T08:30:48.644Z,6.93
2018-09-08T08:33:17.104Z,7.53
2018-09-08T08:35:45.497Z,8.97
2018-09-08T08:38:13.903Z,7.77
2018-09-08T08:40:42.253Z,8.50
2018-09-08T08:43:10.642Z,7.93
2018-09-08T08:45:38.905Z,10.53
2018-09-08T08:48:07.340Z,7.90
2018-09-08T08:50:47.354Z,7.17
2018-09-08T08:54:29.303Z,6.77
2018-09-08T08:56:57.596Z,7.13
2018-09-08T08:59:25.934Z,8.30
2018-09-08T09:01:54.296Z,8.87
2018-09-08T09:04:22.702Z,8.63
2018-09-08T09:06:51.060Z,8.87
2018-09-08T09:09:19.394Z,8.23
2018-09-08T09:11:47.984Z,8.30
2018-09-08T09:14:16.211Z,8.07
2018-09-08T09:16:44.562Z,5.97
2018-09-08T09:19:39.506Z,6.57
2018-09-08T09:22:21.248Z,6.83
2018-09-08T09:25:09.663Z,7.83
2018-09-08T09:27:40.248Z,6.77
2018-09-08T09:30:09.194Z,6.80
2018-09-08T09:32:37.627Z,7.27
2018-09-08T09:35:07.487Z,7.63
2018-09-08T09:37:35.891Z,7.87
2018-09-08T09:40:04.653Z,5.97
2018-09-08T09:42:32.947Z,5.97
2018-09-08T09:45:01.206Z,6.77
2018-09-08T09:47:29.597Z,7.03
2018-09-08T09:49:58.010Z,6.63
2018-09-08T09:52:26.387Z,7.70
2018-09-08T09:54:54.733Z,5.07
2018-09-08T09:57:23.108Z,5.10
2018-09-08T09:59:51.443Z,7.73
2018-09-08T10:02:38.961Z,5.93
2018-09-08T10:05:11.915Z,7.10
2018-09-08T10:07:40.246Z,6.03
2018-09-08T10:10:10.315Z,6.13
2018-09-08T10:12:39.138Z,4.65
2018-09-08T10:15:08.334Z,6.75
2018-09-08T10:17:36.981Z,6.13
2018-09-08T10:20:06.628Z,5.13
2018-09-08T10:22:35.051Z,7.23
2018-09-08T10:25:03.439Z,5.47
2018-09-08T10:27:31.773Z,6.03
2018-09-08T10:30:00.546Z,4.93
2018-09-08T10:32:28.467Z,6.23
2018-09-08T10:34:56.913Z,4.93
2018-09-08T10:37:25.115Z,8.10
2018-09-08T10:39:53.471Z,6.93
2018-09-08T10:42:21.863Z,7.60
2018-09-08T10:44:50.198Z,5.97
2018-09-08T10:47:18.522Z,5.10
2018-09-08T10:49:46.848Z,5.93
2018-09-08T10:52:21.748Z,3.63
2018-09-08T10:54:50.051Z,4.63
2018-09-08T10:57:18.918Z,3.07
2018-09-08T10:59:47.279Z,4.73
2018-09-08T11:02:15.991Z,3.23
2018-09-08T11:04:45.215Z,4.63
2018-09-08T11:07:13.507Z,4.93
2018-09-08T11:09:41.793Z,5.60
2018-09-08T11:12:10.131Z,5.37
2018-09-08T11:14:38.622Z,6.43
2018-09-08T11:17:06.927Z,5.67
2018-09-08T11:19:35.205Z,8.53
2018-09-08T11:22:03.448Z,4.13
2018-09-08T11:24:32.243Z,2.73
2018-09-08T11:27:00.512Z,5.27
2018-09-08T11:29:28.787Z,3.57
2018-09-08T11:31:57.066Z,3.83
2018-09-08T11:34:25.528Z,4.47
2018-09-08T11:36:53.912Z,3.20
2018-09-08T11:39:22.308Z,4.30
2018-09-08T11:41:50.777Z,4.00
2018-09-08T11:44:19.366Z,5.70
2018-09-08T11:46:47.658Z,6.83
2018-09-08T11:49:16.057Z,2.43
2018-09-08T11:51:48.538Z,3.53
2018-09-08T11:54:17.187Z,2.43
2018-09-08T11:56:45.934Z,2.57
2018-09-08T11:59:14.458Z,4.93
2018-09-08T12:01:42.824Z,3.40
2018-09-08T12:04:11.253Z,6.73
2018-09-08T12:06:39.565Z,2.83
2018-09-08T12:09:09.498Z,4.17
2018-09-08T12:11:38.044Z,2.90
2018-09-08T12:14:07.873Z,1.23
2018-09-08T12:16:36.134Z,4.73
2018-09-08T12:19:04.474Z,2.67
2018-09-08T12:21:32.740Z,3.67
2018-09-08T12:24:01.120Z,3.43
2018-09-08T12:26:29.478Z,1.93
2018-09-08T12:28:57.801Z,3.20
2018-09-08T12:31:26.128Z,4.10
2018-09-08T12:33:54.429Z,4.80
2018-09-08T12:36:22.717Z,3.13
2018-09-08T12:38:51.098Z,2.57
2018-09-08T12:41:19.547Z,3.30
2018-09-08T12:43:48.191Z,1.40
2018-09-08T12:46:16.754Z,4.07
2018-09-08T12:48:45.297Z,5.73
2018-09-08T12:51:13.654Z,3.63
2018-09-08T12:53:42.084Z,2.07
2018-09-08T12:56:10.517Z,3.20
2018-09-08T12:58:39.052Z,5.07
2018-09-08T13:01:07.487Z,1.53
2018-09-08T13:03:35.772Z,2.10
2018-09-08T13:06:04.135Z,1.10
2018-09-08T13:08:32.498Z,2.53
2018-09-08T13:11:00.871Z,5.03
2018-09-08T13:13:29.284Z,1.90
2018-09-08T13:15:57.575Z,2.73
2018-09-08T13:18:25.968Z,4.33
2018-09-08T13:20:54.180Z,6.87
2018-09-08T13:23:22.649Z,3.97
2018-09-08T13:25:51.155Z,0.80
2018-09-08T13:28:19.416Z,2.10
2018-09-08T13:30:47.680Z,3.40
2018-09-08T13:33:16.169Z,3.63
2018-09-08T13:35:44.485Z,3.97
2018-09-08T13:38:13.143Z,1.87
2018-09-08T13:40:41.623Z,2.73
2018-09-08T13:43:10.148Z,2.30
2018-09-08T13:45:38.469Z,2.13
2018-09-08T13:48:06.851Z,1.20
2018-09-08T13:50:35.214Z,1.60
2018-09-08T13:53:03.632Z,1.70
2018-09-08T13:55:31.871Z,4.57
2018-09-08T13:58:00.160Z,2.63
2018-09-08T14:00:28.457Z,1.97
2018-09-08T14:02:56.979Z,3.70
2018-09-08T14:05:25.251Z,2.60
2018-09-08T14:07:56.011Z,3.87
2018-09-08T14:10:24.260Z,1.43
2018-09-08T14:12:52.666Z,3.83
2018-09-08T14:15:20.976Z,3.07
2018-09-08T14:17:49.232Z,3.97
2018-09-08T14:20:17.616Z,4.27
2018-09-08T14:22:46.008Z,3.70
2018-09-08T14:25:14.402Z,2.17
2018-09-08T14:27:42.692Z,5.30
2018-09-08T14:30:11.037Z,3.43
2018-09-08T14:32:39.561Z,3.13
2018-09-08T14:35:08.045Z,1.40
2018-09-08T14:37:36.352Z,1.50
2018-09-08T14:40:04.769Z,1.57
2018-09-08T14:42:33.023Z,1.40
2018-09-08T14:45:01.306Z,4.97
2018-09-08T14:47:29.672Z,2.10
2018-09-08T14:49:57.947Z,2.10
2018-09-08T14:52:26.229Z,1.50
2018-09-08T14:54:54.512Z,1.43
2018-09-08T14:57:22.807Z,3.63
2018-09-08T14:59:51.094Z,2.30
2018-09-08T15:02:19.403Z,2.13
2018-09-08T15:04:47.848Z,3.63
2018-09-08T15:07:16.199Z,2.70
2018-09-08T15:09:44.513Z,2.57
2018-09-08T15:12:12.900Z,1.17
2018-09-08T15:14:41.400Z,1.70
2018-09-08T15:17:09.794Z,2.33
2018-09-08T15:19:38.154Z,2.57
2018-09-08T15:22:06.589Z,3.13
2018-09-08T15:24:35.240Z,3.20
2018-09-08T15:27:03.607Z,4.33
2018-09-08T15:29:31.985Z,5.00
2018-09-08T15:32:00.310Z,1.53
2018-09-08T15:34:28.866Z,3.37
2018-09-08T15:36:57.225Z,2.67
2018-09-08T15:39:25.555Z,1.90
2018-09-08T15:41:53.851Z,2.77
2018-09-08T15:44:22.315Z,1.40
2018-09-08T15:46:50.675Z,2.83
2018-09-08T15:52:21.477Z,2.07
2018-09-08T15:54:49.800Z,1.90
2018-09-08T15:57:18.111Z,2.83
2018-09-08T15:59:46.432Z,1.77
2018-09-08T16:02:14.896Z,2.67
2018-09-08T16:04:44.497Z,3.37
2018-09-08T16:07:12.812Z,1.50
2018-09-08T16:09:41.115Z,2.30
2018-09-08T16:12:09.468Z,2.17
2018-09-08T16:14:37.950Z,2.50
2018-09-08T16:17:06.381Z,2.00
2018-09-08T16:19:34.773Z,4.10
2018-09-08T16:22:03.276Z,0.80
2018-09-08T16:24:31.791Z,3.00
2018-09-08T16:27:00.118Z,2.67
2018-09-08T16:29:28.518Z,1.30
2018-09-08T16:31:56.893Z,1.57
2018-09-08T16:34:25.327Z,2.43
2018-09-08T16:36:53.661Z,1.93
2018-09-08T16:39:22.062Z,3.37
2018-09-08T16:41:50.408Z,2.63
2018-09-08T16:44:18.879Z,2.37
2018-09-08T16:46:47.153Z,1.90
2018-09-08T16:49:15.439Z,1.33
2018-09-08T16:51:43.769Z,1.50
2018-09-08T16:54:12.058Z,3.03
2018-09-08T16:56:40.375Z,2.93
2018-09-08T16:59:08.746Z,2.40
2018-09-08T17:01:37.150Z,1.27
2018-09-08T17:04:05.698Z,3.27
2018-09-08T17:06:34.045Z,2.63
2018-09-08T17:09:02.351Z,2.83
2018-09-08T17:11:30.627Z,3.53
2018-09-08T17:13:59.233Z,1.23
2018-09-08T17:16:27.571Z,1.10
2018-09-08T17:18:55.922Z,4.47
2018-09-08T17:21:24.310Z,1.57
2018-09-08T17:23:52.690Z,4.00
2018-09-08T17:26:21.019Z,2.47
2018-09-08T17:28:49.763Z,1.77
2018-09-08T17:31:18.187Z,1.93
2018-09-08T17:33:46.642Z,3.30
2018-09-08T17:36:14.917Z,2.43
2018-09-08T17:38:43.251Z,1.93
2018-09-08T17:44:13.515Z,1.53
2018-09-08T17:46:41.849Z,1.07
2018-09-08T17:49:10.626Z,1.40
2018-09-08T17:51:38.914Z,2.00
2018-09-08T17:54:07.387Z,1.63
2018-09-08T17:56:35.970Z,1.70
2018-09-08T17:59:04.384Z,1.60
2018-09-08T18:01:32.707Z,1.67
2018-09-08T18:04:01.110Z,1.53
2018-09-08T18:06:29.418Z,1.33
2018-09-08T18:08:57.701Z,1.83
2018-09-08T18:11:25.951Z,2.40
2018-09-08T18:13:54.457Z,2.57
2018-09-08T18:16:23.183Z,2.83
2018-09-08T18:18:51.519Z,2.43
2018-09-08T18:21:20.910Z,3.40
2018-09-08T18:23:49.331Z,4.07
2018-09-08T18:26:17.812Z,2.10
2018-09-08T18:28:46.152Z,2.77
2018-09-08T18:31:14.574Z,2.40
2018-09-08T18:33:43.402Z,1.27
2018-09-08T18:36:11.759Z,2.30
2018-09-08T18:38:40.118Z,1.07
2018-09-08T18:41:08.431Z,1.30
2018-09-08T18:43:36.799Z,2.23
2018-09-08T18:46:05.168Z,1.10
2018-09-08T18:48:33.488Z,2.47
2018-09-08T18:51:01.854Z,1.90
2018-09-08T18:53:30.126Z,0.80
2018-09-08T18:55:58.695Z,0.90
2018-09-08T18:58:27.055Z,2.43
2018-09-08T19:00:55.405Z,2.47
2018-09-08T19:03:24.542Z,1.90
2018-09-08T19:05:52.904Z,3.60
2018-09-08T19:08:21.248Z,1.77
2018-09-08T19:10:49.613Z,2.80
2018-09-08T19:13:18.001Z,1.40
2018-09-08T19:15:46.333Z,1.73
2018-09-08T19:18:14.731Z,1.90
2018-09-08T19:20:43.171Z,2.80
2018-09-08T19:23:11.729Z,1.20
2018-09-08T19:25:40.181Z,2.20
2018-09-08T19:28:08.498Z,1.50
2018-09-08T19:30:36.892Z,1.37
2018-09-08T19:33:05.466Z,2.50
2018-09-08T19:35:38.428Z,1.47
2018-09-08T19:38:07.096Z,2.13
2018-09-08T19:40:40.809Z,2.80
2018-09-08T19:43:09.191Z,3.23
2018-09-08T19:45:37.680Z,1.00
2018-09-08T19:48:09.564Z,2.97
2018-09-08T19:50:37.937Z,1.90
2018-09-08T19:53:11.657Z,1.37
2018-09-08T19:55:40.315Z,2.40
2018-09-08T19:58:14.941Z,4.00
2018-09-08T20:00:43.567Z,1.57
2018-09-08T20:03:11.993Z,1.60
2018-09-08T20:05:40.257Z,2.23
2018-09-08T20:08:08.706Z,1.47
2018-09-08T20:10:37.157Z,2.13
2018-09-08T20:13:06.645Z,1.40
2018-09-08T20:15:34.970Z,2.58
2018-09-08T20:18:03.430Z,1.40
2018-09-08T20:20:31.781Z,2.97
2018-09-08T20:23:00.670Z,3.27
2018-09-08T20:25:29.469Z,1.30
2018-09-08T20:27:57.831Z,3.00
2018-09-08T20:30:26.421Z,4.10
2018-09-08T20:32:54.963Z,3.33
2018-09-08T20:35:23.292Z,1.73
2018-09-08T20:37:51.560Z,1.23
2018-09-08T20:40:19.902Z,2.47
2018-09-08T20:42:48.866Z,3.03
2018-09-08T20:45:17.410Z,1.53
2018-09-08T20:47:46.656Z,2.33
2018-09-08T20:50:15.021Z,2.97
2018-09-08T20:52:43.553Z,3.00
2018-09-08T20:55:12.067Z,1.77
2018-09-08T20:57:40.395Z,3.23
2018-09-08T21:00:09.027Z,2.10
2018-09-08T21:02:37.456Z,2.63
2018-09-08T21:05:06.053Z,1.80
2018-09-08T21:07:34.465Z,2.03
2018-09-08T21:10:05.726Z,1.70
2018-09-08T21:12:35.119Z,3.37
2018-09-08T21:15:03.526Z,1.77
2018-09-08T21:17:31.924Z,3.53
2018-09-08T21:20:00.432Z,1.60
2018-09-08T21:22:28.917Z,2.83
2018-09-08T21:24:57.284Z,2.03
2018-09-08T21:27:25.631Z,1.97
2018-09-08T21:29:54.282Z,1.90
2018-09-08T21:32:22.628Z,3.00
2018-09-08T21:34:50.931Z,3.67
2018-09-08T21:37:19.473Z,3.80
2018-09-08T21:39:48.138Z,2.07
2018-09-08T21:42:16.437Z,1.93
2018-09-08T21:44:44.836Z,3.43
2018-09-08T21:47:13.215Z,4.93
2018-09-08T21:49:41.633Z,3.27
2018-09-08T21:52:09.998Z,5.40
2018-09-08T21:54:38.438Z,3.60
2018-09-08T21:57:06.914Z,3.53
2018-09-08T21:59:35.269Z,4.07
2018-09-08T22:02:03.827Z,2.43
2018-09-08T22:04:32.564Z,2.20
2018-09-08T22:07:01.039Z,3.30
2018-09-08T22:09:31.466Z,2.60
2018-09-08T22:11:59.978Z,2.97
2018-09-08T22:14:28.825Z,3.63
2018-09-08T22:16:57.332Z,2.83
2018-09-08T22:19:25.650Z,4.13
2018-09-08T22:21:53.941Z,4.57
2018-09-08T22:24:22.659Z,3.80
2018-09-08T22:26:51.047Z,4.33
2018-09-08T22:29:19.482Z,3.50
2018-09-08T22:31:47.788Z,3.23
2018-09-08T22:34:16.203Z,3.00
2018-09-08T22:36:44.487Z,2.83
2018-09-08T22:39:12.780Z,4.27
2018-09-08T22:41:41.135Z,3.83
2018-09-08T22:44:09.449Z,3.03
2018-09-08T22:46:37.762Z,3.90
2018-09-08T22:49:06.597Z,4.00
2018-09-08T22:51:34.955Z,4.70
2018-09-08T22:54:03.314Z,4.77
2018-09-08T22:56:31.609Z,3.60
2018-09-08T22:58:59.988Z,3.87
2018-09-08T23:01:28.282Z,5.73
2018-09-08T23:03:56.740Z,3.83
2018-09-08T23:06:25.254Z,5.53
2018-09-08T23:08:53.573Z,4.30
2018-09-08T23:11:21.926Z,7.17
2018-09-08T23:13:50.453Z,4.80
2018-09-08T23:16:18.892Z,5.87
2018-09-08T23:18:47.414Z,7.20
2018-09-08T23:21:16.122Z,6.87
2018-09-08T23:23:44.539Z,5.60
2018-09-08T23:26:12.932Z,4.10
2018-09-08T23:28:41.240Z,5.97
2018-09-08T23:31:09.512Z,6.03
2018-09-08T23:33:37.934Z,4.10
2018-09-08T23:36:06.356Z,4.10
2018-09-08T23:38:34.764Z,4.10
2018-09-08T23:41:03.125Z,6.37
2018-09-08T23:43:31.678Z,5.80
2018-09-08T23:46:00.090Z,4.47
2018-09-08T23:48:28.419Z,4.70
2018-09-08T23:50:56.833Z,4.70
2018-09-08T23:53:25.312Z,4.80
2018-09-08T23:55:53.695Z,5.57
2018-09-08T23:58:21.972Z,6.37
